sensor_id;sensor_type;location;lat;lon;timestamp;pressure;altitude;pressure_sealevel;temperature;humidity
73936;BME280;62287;50.858;0.252;2023-04-30T00:00:10;102096.56;;;14.73;39.27
73936;BME280;62287;50.858;0.252;2023-04-30T00:00:41;102094.65;;;14.56;39.49
73936;BME280;62287;50.858;0.252;2023-04-30T00:01:12;102095.62;;;14.55;39.50
73936;BME280;62287;50.858;0.252;2023-04-30T00:01:43;102094.99;;;14.03;39.60
73936;BME280;62287;50.858;0.252;2023-04-30T00:02:14;102094.04;;;14.63;39.48
73936;BME280;62287;50.858;0.252;2023-04-30T00:02:45;102094.45;;;14.29;39.50
73936;BME280;62287;50.858;0.252;2023-04-30T00:03:16;102094.62;;;14.36;39.65
73936;BME280;62287;50.858;0.252;2023-04-30T00:03:46;102093.32;;;14.58;39.62
73936;BME280;62287;50.858;0.252;2023-04-30T00:04:17;102093.00;;;14.72;39.38
73936;BME280;62287;50.858;0.252;2023-04-30T00:04:48;102093.42;;;14.65;39.38
73936;BME280;62287;50.858;0.252;2023-04-30T00:05:19;102094.15;;;14.46;39.48
73936;BME280;62287;50.858;0.252;2023-04-30T00:05:50;102092.91;;;14.91;39.52
73936;BME280;62287;50.858;0.252;2023-04-30T00:06:21;102093.92;;;15.14;39.33
73936;BME280;62287;50.858;0.252;2023-04-30T00:06:52;102093.15;;;14.80;39.30
73936;BME280;62287;50.858;0.252;2023-04-30T00:07:23;102092.26;;;14.60;39.41
73936;BME280;62287;50.858;0.252;2023-04-30T00:07:54;102093.55;;;14.58;39.48
73936;BME280;62287;50.858;0.252;2023-04-30T00:08:25;102090.73;;;14.65;39.50
73936;BME280;62287;50.858;0.252;2023-04-30T00:08:56;102089.55;;;14.83;39.40
73936;BME280;62287;50.858;0.252;2023-04-30T00:09:27;102089.71;;;14.78;39.33
73936;BME280;62287;50.858;0.252;2023-04-30T00:09:58;102088.45;;;14.58;39.43
73936;BME280;62287;50.858;0.252;2023-04-30T00:10:29;102088.52;;;15.05;39.09
73936;BME280;62287;50.858;0.252;2023-04-30T00:11:00;102088.02;;;14.73;39.21
73936;BME280;62287;50.858;0.252;2023-04-30T00:11:31;102086.67;;;14.69;39.24
73936;BME280;62287;50.858;0.252;2023-04-30T00:12:02;102085.14;;;15.12;39.17
73936;BME280;62287;50.858;0.252;2023-04-30T00:12:33;102085.58;;;14.70;39.11
73936;BME280;62287;50.858;0.252;2023-04-30T00:13:04;102087.16;;;14.49;39.14
73936;BME280;62287;50.858;0.252;2023-04-30T00:13:35;102084.46;;;14.54;39.15
73936;BME280;62287;50.858;0.252;2023-04-30T00:14:05;102083.19;;;15.19;39.22
73936;BME280;62287;50.858;0.252;2023-04-30T00:14:36;102085.86;;;14.25;39.14
73936;BME280;62287;50.858;0.252;2023-04-30T00:15:08;102084.40;;;14.27;39.10
73936;BME280;62287;50.858;0.252;2023-04-30T00:15:39;102084.03;;;14.27;39.29
73936;BME280;62287;50.858;0.252;2023-04-30T00:16:10;102086.27;;;14.46;39.15
73936;BME280;62287;50.858;0.252;2023-04-30T00:16:41;102083.15;;;14.63;39.35
73936;BME280;62287;50.858;0.252;2023-04-30T00:17:12;102083.74;;;14.60;39.14
73936;BME280;62287;50.858;0.252;2023-04-30T00:17:43;102084.35;;;15.04;39.06
73936;BME280;62287;50.858;0.252;2023-04-30T00:18:14;102086.09;;;14.76;39.05
73936;BME280;62287;50.858;0.252;2023-04-30T00:18:45;102084.20;;;14.49;39.15
73936;BME280;62287;50.858;0.252;2023-04-30T00:19:16;102085.33;;;14.63;39.03
73936;BME280;62287;50.858;0.252;2023-04-30T00:19:46;102087.19;;;14.92;39.21
73936;BME280;62287;50.858;0.252;2023-04-30T00:20:17;102085.95;;;14.68;39.13
73936;BME280;62287;50.858;0.252;2023-04-30T00:20:48;102087.84;;;14.92;39.21
73936;BME280;62287;50.858;0.252;2023-04-30T00:21:19;102084.81;;;14.87;38.91
73936;BME280;62287;50.858;0.252;2023-04-30T00:21:50;102082.87;;;14.71;38.91
73936;BME280;62287;50.858;0.252;2023-04-30T00:22:21;102083.26;;;14.45;39.18
73936;BME280;62287;50.858;0.252;2023-04-30T00:22:52;102084.49;;;14.59;39.22
73936;BME280;62287;50.858;0.252;2023-04-30T00:23:23;102082.77;;;14.88;39.19
73936;BME280;62287;50.858;0.252;2023-04-30T00:23:54;102081.52;;;14.77;39.36
73936;BME280;62287;50.858;0.252;2023-04-30T00:24:25;102082.78;;;14.35;39.40
73936;BME280;62287;50.858;0.252;2023-04-30T00:24:56;102084.85;;;14.51;39.29
73936;BME280;62287;50.858;0.252;2023-04-30T00:25:26;102084.31;;;14.55;39.08
73936;BME280;62287;50.858;0.252;2023-04-30T00:25:57;102083.50;;;14.64;38.98
73936;BME280;62287;50.858;0.252;2023-04-30T00:26:28;102083.26;;;14.82;38.91
73936;BME280;62287;50.858;0.252;2023-04-30T00:26:59;102082.71;;;15.09;39.07
73936;BME280;62287;50.858;0.252;2023-04-30T00:27:31;102083.07;;;14.38;39.26
73936;BME280;62287;50.858;0.252;2023-04-30T00:28:02;102082.77;;;15.03;39.10
73936;BME280;62287;50.858;0.252;2023-04-30T00:28:32;102082.66;;;14.88;39.24
73936;BME280;62287;50.858;0.252;2023-04-30T00:29:09;102081.51;;;14.31;39.29
73936;BME280;62287;50.858;0.252;2023-04-30T00:29:41;102081.22;;;14.66;39.48
73936;BME280;62287;50.858;0.252;2023-04-30T00:30:12;102081.98;;;14.32;39.34
73936;BME280;62287;50.858;0.252;2023-04-30T00:30:43;102082.17;;;14.43;39.21
73936;BME280;62287;50.858;0.252;2023-04-30T00:31:14;102082.06;;;14.40;39.21
73936;BME280;62287;50.858;0.252;2023-04-30T00:31:45;102083.08;;;14.61;39.18
73936;BME280;62287;50.858;0.252;2023-04-30T00:32:16;102082.97;;;14.45;39.23
73936;BME280;62287;50.858;0.252;2023-04-30T00:32:47;102080.83;;;14.55;39.12
73936;BME280;62287;50.858;0.252;2023-04-30T00:33:18;102082.12;;;14.60;39.05
73936;BME280;62287;50.858;0.252;2023-04-30T00:33:50;102081.62;;;14.61;39.02
73936;BME280;62287;50.858;0.252;2023-04-30T00:34:21;102077.74;;;14.65;39.31
73936;BME280;62287;50.858;0.252;2023-04-30T00:34:52;102077.72;;;14.46;39.20
73936;BME280;62287;50.858;0.252;2023-04-30T00:35:23;102076.87;;;14.44;39.24
73936;BME280;62287;50.858;0.252;2023-04-30T00:35:53;102078.57;;;14.27;39.25
73936;BME280;62287;50.858;0.252;2023-04-30T00:36:24;102079.11;;;14.38;39.15
73936;BME280;62287;50.858;0.252;2023-04-30T00:36:55;102077.08;;;14.58;39.09
73936;BME280;62287;50.858;0.252;2023-04-30T00:37:26;102075.54;;;14.80;38.95
73936;BME280;62287;50.858;0.252;2023-04-30T00:37:57;102076.34;;;14.46;39.04
73936;BME280;62287;50.858;0.252;2023-04-30T00:38:28;102077.39;;;14.48;39.09
73936;BME280;62287;50.858;0.252;2023-04-30T00:38:59;102076.50;;;14.10;39.00
73936;BME280;62287;50.858;0.252;2023-04-30T00:39:30;102079.44;;;14.71;38.77
73936;BME280;62287;50.858;0.252;2023-04-30T00:40:01;102078.45;;;14.15;38.99
73936;BME280;62287;50.858;0.252;2023-04-30T00:40:33;102079.35;;;14.43;39.07
73936;BME280;62287;50.858;0.252;2023-04-30T00:41:04;102079.02;;;14.78;39.03
73936;BME280;62287;50.858;0.252;2023-04-30T00:41:35;102078.48;;;14.53;38.95
73936;BME280;62287;50.858;0.252;2023-04-30T00:42:07;102078.35;;;14.58;38.93
73936;BME280;62287;50.858;0.252;2023-04-30T00:42:37;102078.90;;;14.59;38.78
73936;BME280;62287;50.858;0.252;2023-04-30T00:43:08;102078.56;;;14.55;38.97
73936;BME280;62287;50.858;0.252;2023-04-30T00:43:39;102078.30;;;14.83;38.98
73936;BME280;62287;50.858;0.252;2023-04-30T00:44:10;102077.21;;;14.23;39.01
73936;BME280;62287;50.858;0.252;2023-04-30T00:44:41;102077.55;;;14.29;39.06
73936;BME280;62287;50.858;0.252;2023-04-30T00:45:12;102078.01;;;14.94;38.82
73936;BME280;62287;50.858;0.252;2023-04-30T00:45:43;102078.46;;;14.50;38.92
73936;BME280;62287;50.858;0.252;2023-04-30T00:46:14;102077.83;;;14.85;38.94
73936;BME280;62287;50.858;0.252;2023-04-30T00:46:45;102077.70;;;14.33;38.91
73936;BME280;62287;50.858;0.252;2023-04-30T00:47:16;102078.81;;;14.60;38.68
73936;BME280;62287;50.858;0.252;2023-04-30T00:47:48;102077.92;;;14.58;38.80
73936;BME280;62287;50.858;0.252;2023-04-30T00:48:19;102078.20;;;14.88;38.78
73936;BME280;62287;50.858;0.252;2023-04-30T00:48:50;102077.37;;;14.83;39.02
73936;BME280;62287;50.858;0.252;2023-04-30T00:49:21;102077.08;;;14.28;39.02
73936;BME280;62287;50.858;0.252;2023-04-30T00:49:52;102076.41;;;14.39;39.00
73936;BME280;62287;50.858;0.252;2023-04-30T00:50:23;102074.10;;;14.69;38.91
73936;BME280;62287;50.858;0.252;2023-04-30T00:50:55;102076.87;;;14.50;38.87
73936;BME280;62287;50.858;0.252;2023-04-30T00:51:26;102074.64;;;14.29;39.00
73936;BME280;62287;50.858;0.252;2023-04-30T00:51:58;102076.07;;;14.21;39.01
73936;BME280;62287;50.858;0.252;2023-04-30T00:52:29;102075.60;;;14.09;39.14
73936;BME280;62287;50.858;0.252;2023-04-30T00:53:00;102076.93;;;14.28;38.99
73936;BME280;62287;50.858;0.252;2023-04-30T00:53:32;102077.42;;;14.68;38.98
73936;BME280;62287;50.858;0.252;2023-04-30T00:54:04;102077.69;;;14.81;38.88
73936;BME280;62287;50.858;0.252;2023-04-30T00:54:35;102077.55;;;14.92;38.96
73936;BME280;62287;50.858;0.252;2023-04-30T00:55:07;102076.14;;;14.19;39.08
73936;BME280;62287;50.858;0.252;2023-04-30T00:55:39;102073.09;;;14.46;39.17
73936;BME280;62287;50.858;0.252;2023-04-30T00:56:12;102077.07;;;14.38;38.87
73936;BME280;62287;50.858;0.252;2023-04-30T00:56:44;102072.44;;;14.48;38.91
73936;BME280;62287;50.858;0.252;2023-04-30T00:57:15;102074.59;;;14.79;38.75
73936;BME280;62287;50.858;0.252;2023-04-30T00:57:46;102073.65;;;14.30;38.91
73936;BME280;62287;50.858;0.252;2023-04-30T00:58:17;102071.56;;;14.19;39.01
73936;BME280;62287;50.858;0.252;2023-04-30T00:58:49;102070.24;;;14.23;39.08
73936;BME280;62287;50.858;0.252;2023-04-30T00:59:20;102069.01;;;14.80;38.97
73936;BME280;62287;50.858;0.252;2023-04-30T00:59:51;102068.82;;;14.79;38.81
73936;BME280;62287;50.858;0.252;2023-04-30T01:00:24;102068.99;;;14.26;38.96
73936;BME280;62287;50.858;0.252;2023-04-30T01:00:55;102070.95;;;14.52;38.67
73936;BME280;62287;50.858;0.252;2023-04-30T01:01:27;102070.93;;;14.88;38.82
73936;BME280;62287;50.858;0.252;2023-04-30T01:01:58;102072.55;;;14.71;38.84
73936;BME280;62287;50.858;0.252;2023-04-30T01:02:29;102072.62;;;14.27;38.76
73936;BME280;62287;50.858;0.252;2023-04-30T01:03:00;102071.78;;;14.20;38.87
73936;BME280;62287;50.858;0.252;2023-04-30T01:03:31;102073.55;;;14.56;38.86
73936;BME280;62287;50.858;0.252;2023-04-30T01:04:02;102073.79;;;14.16;38.78
73936;BME280;62287;50.858;0.252;2023-04-30T01:04:34;102074.05;;;14.61;38.78
73936;BME280;62287;50.858;0.252;2023-04-30T01:05:06;102073.84;;;14.54;38.79
73936;BME280;62287;50.858;0.252;2023-04-30T01:05:37;102074.21;;;14.53;38.72
73936;BME280;62287;50.858;0.252;2023-04-30T01:06:08;102072.66;;;14.44;38.94
73936;BME280;62287;50.858;0.252;2023-04-30T01:06:39;102075.67;;;14.49;38.83
73936;BME280;62287;50.858;0.252;2023-04-30T01:07:10;102076.47;;;14.67;38.82
73936;BME280;62287;50.858;0.252;2023-04-30T01:07:41;102075.72;;;14.59;38.77
73936;BME280;62287;50.858;0.252;2023-04-30T01:08:13;102077.30;;;14.45;39.04
73936;BME280;62287;50.858;0.252;2023-04-30T01:08:44;102074.44;;;14.50;39.12
73936;BME280;62287;50.858;0.252;2023-04-30T01:09:15;102075.93;;;14.72;39.10
73936;BME280;62287;50.858;0.252;2023-04-30T01:09:46;102076.19;;;14.57;39.08
73936;BME280;62287;50.858;0.252;2023-04-30T01:10:18;102075.85;;;14.36;39.10
73936;BME280;62287;50.858;0.252;2023-04-30T01:10:54;102075.46;;;14.44;39.02
73936;BME280;62287;50.858;0.252;2023-04-30T01:11:39;102078.67;;;15.03;38.94
73936;BME280;62287;50.858;0.252;2023-04-30T01:12:20;102078.52;;;14.80;38.95
73936;BME280;62287;50.858;0.252;2023-04-30T01:12:55;102078.46;;;14.62;38.95
73936;BME280;62287;50.858;0.252;2023-04-30T01:13:34;102076.73;;;14.93;39.01
73936;BME280;62287;50.858;0.252;2023-04-30T01:14:12;102076.79;;;14.60;39.10
73936;BME280;62287;50.858;0.252;2023-04-30T01:14:55;102077.45;;;14.96;39.04
73936;BME280;62287;50.858;0.252;2023-04-30T01:15:34;102077.95;;;14.44;39.12
73936;BME280;62287;50.858;0.252;2023-04-30T01:16:10;102078.04;;;14.64;39.11
73936;BME280;62287;50.858;0.252;2023-04-30T01:16:48;102075.22;;;14.48;39.18
73936;BME280;62287;50.858;0.252;2023-04-30T01:17:27;102075.39;;;14.00;39.20
73936;BME280;62287;50.858;0.252;2023-04-30T01:18:06;102075.50;;;14.12;39.12
73936;BME280;62287;50.858;0.252;2023-04-30T01:18:42;102073.52;;;14.20;39.08
73936;BME280;62287;50.858;0.252;2023-04-30T01:19:30;102074.70;;;14.58;39.27
73936;BME280;62287;50.858;0.252;2023-04-30T01:20:07;102072.61;;;14.43;39.32
73936;BME280;62287;50.858;0.252;2023-04-30T01:20:47;102072.48;;;14.11;39.21
73936;BME280;62287;50.858;0.252;2023-04-30T01:21:20;102073.67;;;14.20;39.33
73936;BME280;62287;50.858;0.252;2023-04-30T01:21:51;102071.43;;;14.05;39.51
73936;BME280;62287;50.858;0.252;2023-04-30T01:22:34;102069.51;;;13.53;39.45
73936;BME280;62287;50.858;0.252;2023-04-30T01:23:13;102072.44;;;13.79;39.50
73936;BME280;62287;50.858;0.252;2023-04-30T01:24:00;102071.97;;;14.63;39.34
73936;BME280;62287;50.858;0.252;2023-04-30T01:25:04;102072.43;;;14.00;39.58
73936;BME280;62287;50.858;0.252;2023-04-30T01:25:49;102069.67;;;14.32;39.29
73936;BME280;62287;50.858;0.252;2023-04-30T01:26:33;102070.87;;;14.37;39.27
73936;BME280;62287;50.858;0.252;2023-04-30T01:27:14;102070.20;;;14.07;39.41
73936;BME280;62287;50.858;0.252;2023-04-30T01:28:04;102073.01;;;14.06;39.49
73936;BME280;62287;50.858;0.252;2023-04-30T01:28:36;102072.44;;;14.02;39.52
73936;BME280;62287;50.858;0.252;2023-04-30T01:29:09;102071.16;;;13.92;39.62
73936;BME280;62287;50.858;0.252;2023-04-30T01:29:41;102071.37;;;13.86;39.36
73936;BME280;62287;50.858;0.252;2023-04-30T01:30:13;102068.88;;;14.33;39.29
73936;BME280;62287;50.858;0.252;2023-04-30T01:30:45;102070.00;;;13.51;39.59
73936;BME280;62287;50.858;0.252;2023-04-30T01:31:18;102068.89;;;13.96;39.56
73936;BME280;62287;50.858;0.252;2023-04-30T01:31:49;102070.38;;;14.06;39.55
73936;BME280;62287;50.858;0.252;2023-04-30T01:32:20;102068.94;;;13.90;39.43
73936;BME280;62287;50.858;0.252;2023-04-30T01:32:50;102065.59;;;14.26;39.27
73936;BME280;62287;50.858;0.252;2023-04-30T01:33:21;102067.64;;;13.88;39.33
73936;BME280;62287;50.858;0.252;2023-04-30T01:33:52;102066.80;;;14.18;39.35
73936;BME280;62287;50.858;0.252;2023-04-30T01:34:23;102065.44;;;14.19;39.33
73936;BME280;62287;50.858;0.252;2023-04-30T01:34:54;102065.19;;;14.38;39.03
73936;BME280;62287;50.858;0.252;2023-04-30T01:35:35;102064.02;;;14.32;39.14
73936;BME280;62287;50.858;0.252;2023-04-30T01:36:29;102065.50;;;13.81;39.39
73936;BME280;62287;50.858;0.252;2023-04-30T01:37:13;102065.57;;;14.68;39.32
73936;BME280;62287;50.858;0.252;2023-04-30T01:37:51;102065.44;;;14.25;39.45
73936;BME280;62287;50.858;0.252;2023-04-30T01:38:38;102064.30;;;14.22;39.55
73936;BME280;62287;50.858;0.252;2023-04-30T01:39:24;102064.62;;;14.15;39.52
73936;BME280;62287;50.858;0.252;2023-04-30T01:40:12;102064.21;;;13.74;39.83
73936;BME280;62287;50.858;0.252;2023-04-30T01:40:52;102063.22;;;13.73;39.95
73936;BME280;62287;50.858;0.252;2023-04-30T01:41:30;102062.02;;;13.96;39.80
73936;BME280;62287;50.858;0.252;2023-04-30T01:42:08;102061.47;;;14.11;39.66
73936;BME280;62287;50.858;0.252;2023-04-30T01:42:51;102063.31;;;13.98;39.72
73936;BME280;62287;50.858;0.252;2023-04-30T01:43:32;102061.43;;;14.20;39.51
73936;BME280;62287;50.858;0.252;2023-04-30T01:44:22;102060.75;;;13.67;39.62
73936;BME280;62287;50.858;0.252;2023-04-30T01:45:03;102059.87;;;13.84;39.51
73936;BME280;62287;50.858;0.252;2023-04-30T01:45:53;102062.06;;;14.16;39.52
73936;BME280;62287;50.858;0.252;2023-04-30T01:46:28;102060.76;;;14.49;39.54
73936;BME280;62287;50.858;0.252;2023-04-30T01:47:05;102060.40;;;13.81;39.54
73936;BME280;62287;50.858;0.252;2023-04-30T01:47:39;102057.29;;;13.98;39.68
73936;BME280;62287;50.858;0.252;2023-04-30T01:48:18;102058.41;;;14.19;39.55
73936;BME280;62287;50.858;0.252;2023-04-30T01:48:58;102059.53;;;14.10;39.66
73936;BME280;62287;50.858;0.252;2023-04-30T01:49:42;102059.62;;;13.74;39.83
73936;BME280;62287;50.858;0.252;2023-04-30T01:50:24;102057.83;;;13.91;39.76
73936;BME280;62287;50.858;0.252;2023-04-30T01:51:06;102057.98;;;14.12;39.88
73936;BME280;62287;50.858;0.252;2023-04-30T01:51:40;102057.37;;;13.93;39.79
73936;BME280;62287;50.858;0.252;2023-04-30T01:52:17;102054.24;;;13.63;39.64
73936;BME280;62287;50.858;0.252;2023-04-30T01:52:52;102054.44;;;14.15;39.54
73936;BME280;62287;50.858;0.252;2023-04-30T01:53:30;102054.73;;;14.30;39.51
73936;BME280;62287;50.858;0.252;2023-04-30T01:54:07;102053.95;;;14.24;39.51
73936;BME280;62287;50.858;0.252;2023-04-30T01:54:44;102054.10;;;13.69;39.89
73936;BME280;62287;50.858;0.252;2023-04-30T01:55:20;102051.95;;;13.98;39.75
73936;BME280;62287;50.858;0.252;2023-04-30T01:55:56;102054.94;;;13.77;39.82
73936;BME280;62287;50.858;0.252;2023-04-30T01:56:32;102051.55;;;14.06;39.74
73936;BME280;62287;50.858;0.252;2023-04-30T01:57:06;102051.83;;;14.16;39.55
73936;BME280;62287;50.858;0.252;2023-04-30T01:57:46;102050.46;;;13.92;39.42
73936;BME280;62287;50.858;0.252;2023-04-30T01:58:23;102053.35;;;14.56;39.51
73936;BME280;62287;50.858;0.252;2023-04-30T01:58:54;102051.59;;;14.48;39.58
73936;BME280;62287;50.858;0.252;2023-04-30T01:59:26;102051.01;;;13.85;39.79
73936;BME280;62287;50.858;0.252;2023-04-30T01:59:57;102052.18;;;13.36;39.85
73936;BME280;62287;50.858;0.252;2023-04-30T02:00:29;102053.60;;;13.97;39.75
73936;BME280;62287;50.858;0.252;2023-04-30T02:00:59;102052.20;;;13.81;39.83
73936;BME280;62287;50.858;0.252;2023-04-30T02:01:32;102052.56;;;14.01;39.75
73936;BME280;62287;50.858;0.252;2023-04-30T02:02:03;102052.13;;;13.86;39.71
73936;BME280;62287;50.858;0.252;2023-04-30T02:02:34;102053.25;;;13.72;39.83
73936;BME280;62287;50.858;0.252;2023-04-30T02:03:05;102054.27;;;13.78;39.85
73936;BME280;62287;50.858;0.252;2023-04-30T02:03:36;102051.26;;;14.07;39.96
73936;BME280;62287;50.858;0.252;2023-04-30T02:04:07;102050.29;;;13.87;39.78
73936;BME280;62287;50.858;0.252;2023-04-30T02:04:38;102048.56;;;14.16;39.81
73936;BME280;62287;50.858;0.252;2023-04-30T02:05:09;102050.86;;;14.12;39.92
73936;BME280;62287;50.858;0.252;2023-04-30T02:05:39;102048.87;;;13.37;39.88
73936;BME280;62287;50.858;0.252;2023-04-30T02:06:10;102047.87;;;13.86;39.80
73936;BME280;62287;50.858;0.252;2023-04-30T02:06:41;102050.09;;;13.83;39.83
73936;BME280;62287;50.858;0.252;2023-04-30T02:07:19;102050.88;;;14.00;39.73
73936;BME280;62287;50.858;0.252;2023-04-30T02:07:55;102051.71;;;13.60;39.65
73936;BME280;62287;50.858;0.252;2023-04-30T02:08:26;102051.10;;;14.01;39.67
73936;BME280;62287;50.858;0.252;2023-04-30T02:08:57;102051.66;;;13.80;39.77
73936;BME280;62287;50.858;0.252;2023-04-30T02:09:28;102049.71;;;13.92;39.69
73936;BME280;62287;50.858;0.252;2023-04-30T02:09:59;102052.29;;;14.11;39.55
73936;BME280;62287;50.858;0.252;2023-04-30T02:10:30;102051.91;;;13.37;39.76
73936;BME280;62287;50.858;0.252;2023-04-30T02:11:01;102051.75;;;13.39;39.81
73936;BME280;62287;50.858;0.252;2023-04-30T02:11:32;102051.31;;;13.52;39.78
73936;BME280;62287;50.858;0.252;2023-04-30T02:12:03;102049.76;;;13.80;39.56
73936;BME280;62287;50.858;0.252;2023-04-30T02:12:34;102050.90;;;14.04;39.63
73936;BME280;62287;50.858;0.252;2023-04-30T02:13:05;102051.33;;;13.99;39.59
73936;BME280;62287;50.858;0.252;2023-04-30T02:13:36;102050.51;;;14.35;39.66
73936;BME280;62287;50.858;0.252;2023-04-30T02:14:06;102049.28;;;14.04;39.59
73936;BME280;62287;50.858;0.252;2023-04-30T02:14:37;102049.86;;;13.82;39.79
73936;BME280;62287;50.858;0.252;2023-04-30T02:15:09;102048.84;;;13.75;39.85
73936;BME280;62287;50.858;0.252;2023-04-30T02:15:40;102047.22;;;14.04;39.68
73936;BME280;62287;50.858;0.252;2023-04-30T02:16:11;102047.86;;;14.05;39.95
73936;BME280;62287;50.858;0.252;2023-04-30T02:16:42;102049.32;;;13.72;40.00
73936;BME280;62287;50.858;0.252;2023-04-30T02:17:13;102049.63;;;13.78;39.85
73936;BME280;62287;50.858;0.252;2023-04-30T02:17:44;102049.66;;;14.02;39.79
73936;BME280;62287;50.858;0.252;2023-04-30T02:18:14;102050.50;;;13.74;39.91
73936;BME280;62287;50.858;0.252;2023-04-30T02:18:46;102050.66;;;13.95;39.74
73936;BME280;62287;50.858;0.252;2023-04-30T02:19:17;102051.16;;;14.44;39.71
73936;BME280;62287;50.858;0.252;2023-04-30T02:19:48;102050.07;;;13.83;39.61
73936;BME280;62287;50.858;0.252;2023-04-30T02:20:19;102049.78;;;13.85;39.56
73936;BME280;62287;50.858;0.252;2023-04-30T02:20:50;102048.80;;;14.10;39.61
73936;BME280;62287;50.858;0.252;2023-04-30T02:21:20;102049.59;;;14.07;39.71
73936;BME280;62287;50.858;0.252;2023-04-30T02:21:51;102051.24;;;14.23;39.52
73936;BME280;62287;50.858;0.252;2023-04-30T02:22:27;102053.35;;;14.06;39.66
73936;BME280;62287;50.858;0.252;2023-04-30T02:22:58;102052.56;;;13.93;39.79
73936;BME280;62287;50.858;0.252;2023-04-30T02:23:29;102053.66;;;13.79;39.92
73936;BME280;62287;50.858;0.252;2023-04-30T02:24:00;102053.26;;;14.11;39.72
73936;BME280;62287;50.858;0.252;2023-04-30T02:24:31;102053.03;;;14.43;39.71
73936;BME280;62287;50.858;0.252;2023-04-30T02:25:02;102053.15;;;14.08;39.65
73936;BME280;62287;50.858;0.252;2023-04-30T02:25:33;102054.21;;;13.99;39.70
73936;BME280;62287;50.858;0.252;2023-04-30T02:26:04;102052.22;;;14.01;39.73
73936;BME280;62287;50.858;0.252;2023-04-30T02:26:35;102052.24;;;14.27;39.60
73936;BME280;62287;50.858;0.252;2023-04-30T02:27:06;102052.16;;;13.95;39.81
73936;BME280;62287;50.858;0.252;2023-04-30T02:27:37;102052.58;;;14.18;39.91
73936;BME280;62287;50.858;0.252;2023-04-30T02:28:08;102050.03;;;13.98;39.78
73936;BME280;62287;50.858;0.252;2023-04-30T02:28:39;102049.75;;;14.00;39.99
73936;BME280;62287;50.858;0.252;2023-04-30T02:29:10;102049.21;;;13.85;39.89
73936;BME280;62287;50.858;0.252;2023-04-30T02:29:41;102049.98;;;13.57;40.18
73936;BME280;62287;50.858;0.252;2023-04-30T02:30:12;102048.14;;;13.58;39.94
73936;BME280;62287;50.858;0.252;2023-04-30T02:30:43;102049.61;;;13.93;39.88
73936;BME280;62287;50.858;0.252;2023-04-30T02:31:14;102049.66;;;14.23;39.61
73936;BME280;62287;50.858;0.252;2023-04-30T02:31:44;102050.40;;;13.88;39.87
73936;BME280;62287;50.858;0.252;2023-04-30T02:32:15;102050.33;;;14.22;40.00
73936;BME280;62287;50.858;0.252;2023-04-30T02:32:46;102051.10;;;13.68;39.82
73936;BME280;62287;50.858;0.252;2023-04-30T02:33:17;102048.02;;;13.92;39.86
73936;BME280;62287;50.858;0.252;2023-04-30T02:33:48;102050.65;;;14.27;39.88
73936;BME280;62287;50.858;0.252;2023-04-30T02:34:19;102049.33;;;14.00;39.80
73936;BME280;62287;50.858;0.252;2023-04-30T02:34:50;102047.82;;;13.89;39.89
73936;BME280;62287;50.858;0.252;2023-04-30T02:35:21;102048.33;;;13.93;39.87
73936;BME280;62287;50.858;0.252;2023-04-30T02:35:52;102048.48;;;13.98;39.90
73936;BME280;62287;50.858;0.252;2023-04-30T02:36:23;102047.95;;;14.51;39.73
73936;BME280;62287;50.858;0.252;2023-04-30T02:36:54;102050.63;;;14.16;39.70
73936;BME280;62287;50.858;0.252;2023-04-30T02:37:25;102050.64;;;14.19;39.93
73936;BME280;62287;50.858;0.252;2023-04-30T02:37:56;102053.15;;;13.62;40.06
73936;BME280;62287;50.858;0.252;2023-04-30T02:38:26;102050.96;;;13.62;40.19
73936;BME280;62287;50.858;0.252;2023-04-30T02:38:57;102051.57;;;14.07;40.05
73936;BME280;62287;50.858;0.252;2023-04-30T02:39:28;102050.70;;;13.96;40.12
73936;BME280;62287;50.858;0.252;2023-04-30T02:39:59;102049.93;;;14.10;40.13
73936;BME280;62287;50.858;0.252;2023-04-30T02:40:30;102047.84;;;14.07;39.82
73936;BME280;62287;50.858;0.252;2023-04-30T02:41:01;102047.50;;;14.35;39.85
73936;BME280;62287;50.858;0.252;2023-04-30T02:41:32;102050.33;;;13.46;39.97
73936;BME280;62287;50.858;0.252;2023-04-30T02:42:03;102048.31;;;14.18;40.00
73936;BME280;62287;50.858;0.252;2023-04-30T02:42:34;102048.18;;;14.22;39.93
73936;BME280;62287;50.858;0.252;2023-04-30T02:43:05;102045.32;;;13.87;39.95
73936;BME280;62287;50.858;0.252;2023-04-30T02:43:36;102047.22;;;14.06;39.79
73936;BME280;62287;50.858;0.252;2023-04-30T02:44:07;102044.42;;;13.51;39.87
73936;BME280;62287;50.858;0.252;2023-04-30T02:44:38;102046.25;;;13.91;39.90
73936;BME280;62287;50.858;0.252;2023-04-30T02:45:09;102046.34;;;13.52;40.03
73936;BME280;62287;50.858;0.252;2023-04-30T02:45:40;102046.48;;;13.70;40.16
73936;BME280;62287;50.858;0.252;2023-04-30T02:46:11;102047.01;;;13.80;40.16
73936;BME280;62287;50.858;0.252;2023-04-30T02:46:42;102045.75;;;13.91;39.98
73936;BME280;62287;50.858;0.252;2023-04-30T02:47:13;102046.52;;;14.10;40.21
73936;BME280;62287;50.858;0.252;2023-04-30T02:47:43;102046.64;;;14.32;40.01
73936;BME280;62287;50.858;0.252;2023-04-30T02:48:14;102047.02;;;13.94;39.90
73936;BME280;62287;50.858;0.252;2023-04-30T02:48:45;102044.28;;;13.95;39.93
73936;BME280;62287;50.858;0.252;2023-04-30T02:49:16;102045.76;;;13.68;40.15
73936;BME280;62287;50.858;0.252;2023-04-30T02:49:47;102045.82;;;14.11;40.13
73936;BME280;62287;50.858;0.252;2023-04-30T02:50:18;102045.83;;;13.91;40.04
73936;BME280;62287;50.858;0.252;2023-04-30T02:50:49;102044.12;;;14.16;39.83
73936;BME280;62287;50.858;0.252;2023-04-30T02:51:20;102044.31;;;14.01;40.10
73936;BME280;62287;50.858;0.252;2023-04-30T02:51:51;102043.65;;;14.03;40.19
73936;BME280;62287;50.858;0.252;2023-04-30T02:52:22;102043.94;;;13.98;40.24